Ana Sayfa
METAR-TAF:

METAR-TAF

Havaalanları :

Richmond, Avustralya

Enlem: 20-42-07S, Boylam: 143-06-53E, yükseklik: 206 m

Güncel hava durumu gözlemi

Rapor saat 08:00 UTC de 27 dakika önce yapıldı.
Rüzgar güneybatıdan 6 kt
Sıcaklık 41°C
Nem 7%
Basınç 1007 hPa
Görüş mesafesi 10 km veya daha fazla

METAR: YRMD 070800Z AUTO 22006KT 9999 // NCD 41/M02 Q1007

Saat: 18:27 (08:27 UTC)

Tahmin

Rapor saat 18:22 UTC de 14 saat ve 5 dakika önce yapıldı.
Ayın 06'si saat 20 UTC'den ayın 07'si saat 08 UTC'ye kadar geçerli Tahmin
Rüzgar değişken yönden 3 kt
Görüş mesafesi 10 km veya daha fazla
1500 m altında bulut yok ve kümülonimbus yok
Ayın 07'si saat 0200 UTC'den
Rüzgar güneydan 8 kt
Görüş mesafesi 10 km veya daha fazla
1500 m altında bulut yok ve kümülonimbus yok

TAF: YRMD 061822Z 0620/0708 VRB03KT CAVOK FM070200 19008KT CAVOK

4.000'den fazla havaalanı için hava durumu gözlemleri ve tahminleri (METAR ve TAF raporları).

Kullanılabilir istasyonlar harita üzerinde sarı ve kırmızı noktalarla gösterilir.

İstasyonun adını görmek için fareyi noktanın üzerinde gezdirin.

Sonrasında hava gözlem ve tahminlerini görmek için tıklayın.

Haritayı değiştirmek için: yaklaştırmak için siyah artı işaretli yeşil düğmeye ve uzaklaştırmak için de eksi işaretli düğmeye hızla tıklayın; bitişik haritalar için yeşil okları kullanın.


METAR-TAF: